Terminal Aerodrome Forecast
Issued by NWS Wilmington, NC

Home | Current Version | Previous Version | Text Only | Print | Product List | Glossary On
Versions: 1 2 3 4 5 6 7 8 9 10 11 12
000
FTUS42 KILM 201100
TAFMYR
TAF
KMYR 201120Z 2012/2112 04012G18KT P6SM VCSH SCT035 SCT100
     FM201700 05014G20KT P6SM VCSH OVC035
     FM201900 06012G19KT P6SM OVC035
      TEMPO 2019/2021 6SM -RA OVC025
     FM202100 06012KT P6SM VCSH SCT020 OVC060=

USA.gov is the U.S. government's official web portal to all federal, state and local government web resources and services.